This is the latest recevied weather packets stored in our database for station/object EA5AFP-11. If no packets are shown the sender has not sent any weather packets the latest 1 day(s).
| Time | Temp. | Humidity | Pressure | Rain* | Wind** | Luminosity | Snow |
|---|---|---|---|---|---|---|---|
| 1777966869 | 18.33° C | 6% | - | 0 mm | 0.45 m/s, 22° | - | - |
| 1777966577 | 17.78° C | 6% | - | 0 mm | 1.79 m/s, 337° | - | - |
| 1777966289 | 17.78° C | 6% | - | 0 mm | 1.34 m/s, 315° | - | - |
| 1777966035 | 18.33° C | 6% | - | 0 mm | 0.45 m/s, 0° | - | - |
| 1777965850 | 17.78° C | 6% | - | 0 mm | 1.34 m/s, 315° | - | - |
| 1777965605 | 17.78° C | 6% | - | 0 mm | 1.34 m/s, 292° | - | - |
| 1777965346 | 17.78° C | 6% | - | 0 mm | 1.34 m/s, 292° | - | - |
| 1777965053 | 17.22° C | 6% | - | 0 mm | 1.34 m/s, 270° | - | - |
| 1777964763 | 17.22° C | 6% | - | 0 mm | 2.24 m/s, 270° | - | - |
| 1777964475 | 17.22° C | 6% | - | 0 mm | 1.79 m/s, 315° | - | - |
| 1777964224 | 17.22° C | 7% | - | 0 mm | 1.34 m/s, 292° | - | - |
| 1777964055 | 17.22° C | 7% | - | 0 mm | 1.34 m/s, 292° | - | - |
| 1777963793 | 16.67° C | 8% | - | 0 mm | 1.34 m/s, 315° | - | - |
| 1777963534 | 16.67° C | 8% | - | 0 mm | 1.34 m/s, 315° | - | - |
| 1777963250 | 16.11° C | 8% | - | 0 mm | 1.34 m/s, 315° | - | - |
| 1777962993 | 16.11° C | 8% | - | 0 mm | 1.79 m/s, 315° | - | - |
| 1777962729 | 16.11° C | 9% | - | 0 mm | 1.34 m/s, 315° | - | - |
| 1777962435 | 16.67° C | 9% | - | 0 mm | 1.34 m/s, 292° | - | - |
| 1777962246 | 16.11° C | 9% | - | 0 mm | 1.34 m/s, 292° | - | - |
| 1777962001 | 16.11° C | 9% | - | 0 mm | 1.34 m/s, 315° | - | - |
| 1777961758 | 15.56° C | 9% | - | 0 mm | 1.34 m/s, 0° | - | - |
| 1777961478 | 15.56° C | 9% | - | 0 mm | 1.34 m/s, 315° | - | - |
| 1777961191 | 15.56° C | 9% | - | 0 mm | 1.34 m/s, 315° | - | - |
| 1777960922 | 15.56° C | 9% | - | 0 mm | 1.34 m/s, 315° | - | - |
| 1777960631 | 15° C | 9% | - | 0 mm | 1.34 m/s, 315° | - | - |
* Rain latest hour (hover to see other rain measurements)
** Current wind speed in m/s (hover to see current wind gust speed)